createdAt,value
2017-04-20T00:00:25.977Z,9.08
2017-04-20T00:01:25.158Z,10.85
2017-04-20T00:02:22.556Z,10.22
2017-04-20T00:03:19.920Z,9.97
2017-04-20T00:04:17.361Z,11.25
2017-04-20T00:05:15.953Z,10.30
2017-04-20T00:06:14.110Z,9.90
2017-04-20T00:07:11.440Z,11.28
2017-04-20T00:08:08.801Z,11.15
2017-04-20T00:09:07.013Z,9.80
2017-04-20T00:10:04.358Z,10.53
2017-04-20T00:11:01.678Z,10.63
2017-04-20T00:11:59.120Z,10.27
2017-04-20T00:12:57.268Z,10.50
2017-04-20T00:13:54.687Z,10.62
2017-04-20T00:14:52.774Z,10.85
2017-04-20T00:15:50.175Z,10.37
2017-04-20T00:16:47.503Z,10.43
2017-04-20T00:17:44.873Z,10.72
2017-04-20T00:18:43.018Z,11.23
2017-04-20T00:19:40.442Z,9.90
2017-04-20T00:20:37.860Z,11.72
2017-04-20T00:21:35.233Z,10.47
2017-04-20T00:22:32.641Z,11.25
2017-04-20T00:23:30.002Z,10.47
2017-04-20T00:24:27.406Z,10.85
2017-04-20T00:25:25.670Z,11.20
2017-04-20T00:26:23.539Z,11.58
2017-04-20T00:27:20.889Z,10.87
2017-04-20T00:28:18.979Z,10.67
2017-04-20T00:29:17.119Z,9.97
2017-04-20T00:30:14.649Z,11.75
2017-04-20T00:31:12.037Z,9.68
2017-04-20T00:32:09.378Z,10.63
2017-04-20T00:33:06.735Z,10.88
2017-04-20T00:34:05.348Z,10.68
2017-04-20T00:35:02.718Z,11.23
2017-04-20T00:36:00.158Z,10.70
2017-04-20T00:36:57.614Z,10.00
2017-04-20T00:37:55.698Z,10.28
2017-04-20T00:38:53.057Z,10.10
2017-04-20T00:39:50.470Z,10.47
2017-04-20T00:40:47.926Z,10.35
2017-04-20T00:41:45.269Z,10.50
2017-04-20T00:42:42.590Z,12.37
2017-04-20T00:43:39.962Z,11.20
2017-04-20T00:44:37.327Z,9.87
2017-04-20T00:45:36.239Z,11.07
2017-04-20T00:46:33.644Z,11.08
2017-04-20T00:47:31.715Z,12.10
2017-04-20T00:48:29.065Z,11.38
2017-04-20T00:49:26.521Z,11.53
2017-04-20T00:50:23.887Z,12.37
2017-04-20T00:51:21.302Z,11.17
2017-04-20T00:52:20.017Z,10.23
2017-04-20T00:53:18.097Z,10.53
2017-04-20T00:54:15.493Z,11.42
2017-04-20T00:55:12.868Z,10.38
2017-04-20T00:56:11.001Z,12.50
2017-04-20T00:57:08.417Z,11.95
2017-04-20T00:58:05.757Z,11.77
2017-04-20T00:59:04.426Z,12.42
2017-04-20T01:00:01.877Z,11.85
2017-04-20T01:00:59.268Z,12.45
2017-04-20T05:57:59.482Z,12.27
2017-04-20T05:58:57.574Z,12.43
2017-04-20T05:59:54.901Z,13.57
2017-04-20T06:00:59.750Z,13.75
2017-04-20T06:01:57.882Z,14.58
2017-04-20T06:03:28.289Z,12.62
2017-04-20T06:04:26.490Z,11.95
2017-04-20T06:05:24.641Z,14.00
2017-04-20T06:06:22.091Z,13.78
2017-04-20T06:07:20.222Z,13.02
2017-04-20T06:08:18.338Z,14.03
2017-04-20T06:09:16.584Z,13.38
2017-04-20T06:10:15.437Z,13.75
2017-04-20T06:11:13.534Z,12.57
2017-04-20T06:12:11.738Z,13.25
2017-04-20T06:13:09.859Z,13.78
2017-04-20T06:14:07.219Z,13.28
2017-04-20T06:15:05.340Z,12.77
2017-04-20T06:16:03.490Z,12.78
2017-04-20T06:17:01.585Z,13.12
2017-04-20T16:36:32.163Z,15.45
2017-04-20T16:37:31.157Z,13.30
2017-04-20T16:38:30.151Z,13.58
2017-04-20T16:39:28.415Z,14.93
2017-04-20T16:45:07.959Z,14.43
2017-04-20T16:46:06.346Z,14.28
2017-04-20T16:47:03.925Z,14.23
2017-04-20T16:48:01.505Z,14.02
2017-04-20T16:48:59.139Z,14.08
2017-04-20T16:49:56.667Z,13.73
2017-04-20T16:50:54.437Z,15.38
2017-04-20T16:51:52.042Z,14.77
2017-04-20T16:52:50.306Z,15.00
2017-04-20T16:53:48.618Z,14.88
2017-04-20T16:54:46.911Z,16.07
2017-04-20T16:55:44.430Z,14.63
2017-04-20T16:56:42.077Z,16.73
2017-04-20T16:57:39.639Z,14.57
2017-04-20T16:58:37.210Z,16.00
2017-04-20T16:59:34.839Z,14.87
2017-04-20T17:00:32.414Z,15.98
2017-04-20T17:01:29.956Z,16.98
2017-04-20T17:02:28.460Z,16.38
2017-04-20T17:03:26.068Z,16.05
2017-04-20T17:04:23.604Z,16.32
2017-04-20T17:05:22.395Z,17.42
2017-04-20T17:06:19.920Z,18.67
2017-04-20T17:07:18.194Z,16.82
2017-04-20T17:08:15.869Z,18.40
2017-04-20T17:09:14.174Z,16.67
2017-04-20T17:10:11.777Z,16.27
2017-04-20T17:11:10.100Z,16.20
2017-04-20T17:12:07.692Z,17.15
2017-04-20T17:13:06.072Z,15.90
2017-04-20T17:14:03.750Z,15.93
2017-04-20T17:15:02.051Z,15.58
2017-04-20T17:16:00.313Z,16.48
2017-04-20T17:16:58.663Z,15.60
2017-04-20T17:17:56.955Z,16.12
2017-04-20T17:18:54.512Z,16.18
2017-04-20T17:19:52.111Z,16.80
2017-04-20T17:20:49.656Z,16.73
2017-04-20T17:21:47.186Z,17.02
2017-04-20T17:22:44.704Z,16.10
2017-04-20T17:23:43.013Z,17.70
2017-04-20T17:24:40.531Z,17.63
2017-04-20T17:25:38.255Z,18.70
2017-04-20T17:26:36.682Z,19.53
2017-04-20T17:27:34.537Z,18.18
2017-04-20T17:28:32.071Z,17.65
2017-04-20T17:29:29.618Z,18.50
2017-04-20T17:30:27.195Z,18.45
2017-04-20T17:31:24.849Z,18.10
2017-04-20T17:32:23.195Z,18.12
2017-04-20T17:33:21.232Z,18.57
2017-04-20T17:34:18.861Z,18.22
2017-04-20T17:35:17.403Z,17.40
2017-04-20T17:36:15.707Z,18.90
2017-04-20T17:37:14.010Z,20.42
2017-04-20T17:38:12.321Z,19.90
2017-04-20T17:39:10.650Z,18.17
2017-04-20T17:40:08.954Z,18.48
2017-04-20T17:41:07.424Z,18.80
2017-04-20T17:42:04.986Z,19.25
2017-04-20T17:43:02.597Z,19.63
2017-04-20T17:44:00.228Z,18.85
2017-04-20T17:44:57.822Z,19.50
2017-04-20T17:45:56.085Z,18.22
2017-04-20T17:46:53.687Z,17.73
2017-04-20T17:47:51.311Z,19.58
2017-04-20T17:48:48.897Z,18.90
2017-04-20T17:49:47.212Z,18.57
2017-04-20T17:50:45.468Z,20.05
2017-04-20T17:51:43.739Z,17.93
2017-04-20T17:52:41.421Z,18.70
2017-04-20T17:53:39.029Z,18.95
2017-04-20T17:54:36.594Z,19.15
2017-04-20T17:55:34.147Z,18.42
2017-04-20T17:56:31.679Z,20.00
2017-04-20T17:57:29.196Z,17.53
2017-04-20T17:58:26.828Z,18.90
2017-04-20T17:59:24.382Z,17.77
2017-04-20T18:00:22.734Z,19.10
2017-04-20T18:01:20.348Z,19.55
2017-04-20T18:02:17.931Z,19.95
2017-04-20T18:03:15.551Z,17.60
2017-04-20T18:04:14.319Z,17.85
2017-04-20T18:05:11.851Z,18.00
2017-04-20T18:06:10.147Z,20.35
2017-04-20T18:07:08.443Z,18.10
2017-04-20T18:08:06.884Z,18.52
2017-04-20T18:09:05.535Z,18.50
2017-04-20T18:10:03.127Z,19.83
2017-04-20T18:11:00.664Z,19.32
2017-04-20T18:11:58.263Z,17.93
2017-04-20T18:12:56.707Z,19.82
2017-04-20T18:13:55.026Z,19.77
2017-04-20T18:14:53.327Z,19.32
2017-04-20T18:15:51.650Z,18.68
2017-04-20T18:16:49.935Z,17.57
2017-04-20T18:17:47.540Z,20.37
2017-04-20T18:18:45.173Z,18.70
2017-04-20T18:19:43.505Z,19.35
2017-04-20T18:20:41.792Z,19.15
2017-04-20T18:21:40.103Z,19.93
2017-04-20T18:22:38.448Z,19.88
2017-04-20T18:23:36.704Z,19.15
2017-04-20T18:24:35.099Z,20.20
2017-04-20T18:25:33.379Z,18.58
2017-04-20T18:26:32.416Z,18.83
2017-04-20T18:27:31.594Z,18.40
2017-04-20T18:28:29.965Z,18.78
2017-04-20T18:29:28.342Z,17.95
2017-04-20T18:30:26.763Z,19.98
2017-04-20T18:31:25.044Z,19.00
2017-04-20T18:32:23.380Z,17.53
2017-04-20T18:33:21.692Z,20.17
2017-04-20T18:34:19.302Z,17.97
2017-04-20T18:35:16.915Z,18.82
2017-04-20T18:36:15.303Z,18.70
2017-04-20T18:37:12.849Z,18.73
2017-04-20T18:38:11.153Z,19.18
2017-04-20T18:39:08.696Z,20.25
2017-04-20T18:40:06.283Z,19.22
2017-04-20T18:41:03.885Z,18.33
2017-04-20T18:42:01.564Z,20.97
2017-04-20T18:42:59.113Z,17.95
2017-04-20T18:43:56.683Z,18.87
2017-04-20T18:44:54.251Z,18.47
2017-04-20T18:45:51.949Z,18.18
2017-04-20T18:46:50.218Z,18.65
2017-04-20T18:47:47.806Z,17.73
2017-04-20T18:48:45.407Z,18.52
2017-04-20T18:49:42.930Z,16.28
2017-04-20T18:50:40.470Z,16.25
2017-04-20T18:51:37.991Z,18.78
2017-04-20T18:52:35.602Z,18.13
2017-04-20T18:53:33.151Z,19.33
2017-04-20T18:54:30.667Z,18.78
2017-04-20T18:55:29.004Z,17.85
2017-04-20T18:56:26.540Z,17.80
2017-04-20T18:57:24.090Z,17.75
2017-04-20T18:58:21.629Z,18.65
2017-04-20T18:59:19.982Z,17.28
2017-04-20T19:00:18.291Z,18.98
2017-04-20T19:01:16.075Z,18.02
2017-04-20T19:02:13.798Z,17.97
2017-04-20T19:03:11.418Z,19.02
2017-04-20T19:04:09.004Z,17.30
2017-04-20T19:05:07.364Z,17.80
2017-04-20T19:06:04.955Z,18.17
2017-04-20T19:07:02.570Z,16.80
2017-04-20T19:08:00.114Z,17.00
2017-04-20T19:08:57.675Z,17.07
2017-04-20T19:09:55.233Z,17.60
2017-04-20T19:10:52.869Z,17.80
2017-04-20T19:11:50.450Z,17.50
2017-04-20T19:12:47.989Z,17.87
2017-04-20T19:13:46.251Z,18.25
2017-04-20T19:14:43.766Z,17.80
2017-04-20T19:15:41.390Z,17.43
2017-04-20T19:16:38.924Z,17.22
2017-04-20T19:17:36.608Z,18.25
2017-04-20T19:18:34.545Z,17.62
2017-04-20T19:19:32.208Z,17.43
2017-04-20T19:20:30.522Z,18.95
2017-04-20T19:21:28.834Z,17.77
2017-04-20T19:22:27.189Z,18.03
2017-04-20T19:23:25.593Z,19.38
2017-04-20T19:24:23.956Z,20.00
2017-04-20T19:25:22.269Z,18.40
2017-04-20T19:26:21.374Z,17.65
2017-04-20T19:27:19.654Z,18.60
2017-04-20T19:28:18.002Z,19.37
2017-04-20T19:29:15.568Z,18.77
2017-04-20T19:30:13.178Z,19.80
2017-04-20T19:31:10.730Z,18.98
2017-04-20T19:32:08.254Z,19.03
2017-04-20T19:33:05.846Z,19.30
2017-04-20T19:34:03.394Z,20.43
2017-04-20T19:35:00.923Z,18.88
2017-04-20T19:35:59.205Z,19.50
2017-04-20T19:36:57.561Z,19.00
2017-04-20T19:37:55.958Z,19.18
2017-04-20T19:38:54.335Z,20.42
2017-04-20T19:39:52.064Z,20.97
2017-04-20T19:40:50.369Z,20.80
2017-04-20T19:41:48.752Z,20.83
2017-04-20T19:42:47.076Z,20.00
2017-04-20T19:43:45.391Z,20.02
2017-04-20T19:44:42.964Z,18.92
2017-04-20T19:45:40.540Z,20.68
2017-04-20T19:46:38.079Z,18.88
2017-04-20T19:47:35.732Z,19.93
2017-04-20T19:48:34.054Z,19.70
2017-04-20T19:49:32.369Z,20.62
2017-04-20T19:50:31.471Z,19.72
2017-04-20T19:51:29.975Z,21.23
2017-04-20T19:52:28.320Z,19.88
2017-04-20T19:53:26.723Z,20.43
2017-04-20T19:54:25.034Z,19.98
2017-04-20T19:55:23.399Z,20.35
2017-04-20T19:56:21.679Z,21.25
2017-04-20T19:57:20.019Z,19.32
2017-04-20T19:58:18.345Z,21.78
2017-04-20T19:59:16.654Z,21.53
2017-04-20T20:00:15.882Z,20.18
2017-04-20T20:01:14.170Z,20.48
2017-04-20T20:02:13.806Z,20.03
2017-04-20T20:03:12.968Z,20.07
2017-04-20T20:04:11.331Z,21.05
2017-04-20T20:05:09.672Z,22.20
2017-04-20T20:06:08.155Z,21.72
2017-04-20T20:07:06.449Z,20.68
2017-04-20T20:08:04.748Z,19.65
2017-04-20T20:09:03.634Z,19.83
2017-04-20T20:10:02.041Z,19.25
2017-04-20T20:11:00.356Z,19.37
2017-04-20T20:11:59.427Z,19.90
2017-04-20T20:12:57.704Z,20.40
2017-04-20T20:13:56.033Z,19.87
2017-04-20T20:14:54.324Z,18.40
2017-04-20T20:15:53.369Z,19.17
2017-04-20T20:16:51.771Z,18.90
2017-04-20T20:17:50.201Z,20.05
2017-04-20T20:18:47.722Z,19.35
2017-04-20T20:19:46.036Z,18.80
2017-04-20T20:20:44.314Z,20.07
2017-04-20T20:21:42.603Z,19.02
2017-04-20T20:22:40.911Z,19.32
2017-04-20T20:23:38.492Z,19.12
2017-04-20T20:24:36.063Z,19.63
2017-04-20T20:25:34.426Z,18.68
2017-04-20T20:26:32.952Z,20.65
2017-04-20T20:27:31.497Z,19.80
2017-04-20T20:28:29.145Z,21.02
2017-04-20T20:29:26.743Z,21.52
2017-04-20T20:30:24.256Z,19.83
2017-04-20T20:31:21.843Z,20.48
2017-04-20T20:32:19.392Z,20.48
2017-04-20T20:33:17.023Z,20.33
2017-04-20T20:34:14.944Z,21.57
2017-04-20T20:35:14.053Z,20.40
2017-04-20T20:36:11.817Z,21.12
2017-04-20T20:37:09.346Z,20.17
2017-04-20T20:38:06.986Z,19.28
2017-04-20T20:39:05.498Z,20.88
2017-04-20T20:40:03.787Z,21.82
2017-04-20T20:41:02.057Z,21.52
2017-04-20T20:42:00.307Z,21.03
2017-04-20T20:42:58.655Z,21.38
2017-04-20T20:43:56.998Z,20.60
2017-04-20T20:44:55.279Z,22.37
2017-04-20T20:45:53.655Z,21.17
2017-04-20T20:46:51.941Z,20.83
2017-04-20T20:47:50.207Z,19.80
2017-04-20T20:48:47.781Z,20.93
2017-04-20T20:49:45.454Z,21.25
2017-04-20T20:50:43.718Z,20.70
2017-04-20T20:51:42.102Z,20.88
2017-04-20T20:52:40.459Z,20.98
2017-04-20T20:53:38.889Z,19.98
2017-04-20T20:54:37.953Z,20.57
2017-04-20T20:55:37.080Z,19.35
2017-04-20T20:56:35.314Z,19.82
2017-04-20T20:57:33.647Z,18.73
2017-04-20T20:58:32.080Z,18.93
2017-04-20T20:59:30.365Z,19.08
2017-04-20T21:00:29.408Z,21.52
2017-04-20T21:01:27.661Z,19.68
2017-04-20T21:02:25.198Z,23.22
2017-04-20T21:03:22.767Z,20.57
2017-04-20T21:04:21.114Z,20.35
2017-04-20T21:05:19.382Z,19.92
2017-04-20T21:06:17.727Z,19.62
2017-04-20T21:07:16.072Z,19.72
2017-04-20T21:08:14.350Z,19.75
2017-04-20T21:09:12.775Z,17.82
2017-04-20T21:10:11.041Z,19.02
2017-04-20T21:11:09.408Z,20.20
2017-04-20T21:12:07.719Z,19.65
2017-04-20T21:13:05.251Z,17.97
2017-04-20T21:14:03.570Z,19.45
2017-04-20T21:15:01.928Z,18.22
2017-04-20T21:16:00.203Z,18.07
2017-04-20T21:16:58.468Z,18.37
2017-04-20T21:17:56.000Z,18.98
2017-04-20T21:18:54.235Z,17.87
2017-04-20T21:19:52.488Z,19.45
2017-04-20T21:20:50.132Z,21.20
2017-04-20T21:21:47.760Z,23.03
2017-04-20T21:22:46.069Z,21.82
2017-04-20T21:23:44.327Z,19.77
2017-04-20T21:24:42.665Z,18.40
2017-04-20T21:25:40.898Z,18.12
2017-04-20T21:26:39.277Z,17.67
2017-04-20T21:27:38.258Z,18.28
2017-04-20T21:28:35.822Z,19.83
2017-04-20T21:29:33.927Z,17.13
2017-04-20T21:30:31.426Z,17.60
2017-04-20T21:31:28.959Z,17.90
2017-04-20T21:32:27.287Z,18.83
2017-04-20T21:33:25.538Z,18.63
2017-04-20T21:34:23.092Z,18.18
2017-04-20T21:35:20.595Z,17.07
2017-04-20T21:36:18.142Z,18.53
2017-04-20T21:37:16.428Z,17.95
2017-04-20T21:38:14.076Z,19.67
2017-04-20T21:39:11.559Z,17.20
2017-04-20T21:40:09.087Z,18.20
2017-04-20T21:41:06.675Z,15.82
2017-04-20T21:42:04.198Z,16.95
2017-04-20T21:43:01.808Z,18.07
2017-04-20T21:43:59.416Z,17.47
2017-04-20T21:44:56.950Z,17.12
2017-04-20T21:45:54.500Z,18.30
2017-04-20T21:46:52.080Z,19.10
2017-04-20T21:47:50.377Z,17.85
2017-04-20T21:48:47.883Z,18.58
2017-04-20T21:49:45.568Z,18.60
2017-04-20T21:50:43.831Z,15.60
2017-04-20T21:51:42.080Z,16.55
2017-04-20T21:52:40.398Z,17.20
2017-04-20T21:53:38.757Z,16.58
2017-04-20T21:54:37.023Z,16.50
2017-04-20T21:55:35.301Z,17.60
2017-04-20T21:56:33.561Z,15.88
2017-04-20T21:57:32.022Z,16.38
2017-04-20T21:58:30.322Z,18.53
2017-04-20T21:59:28.548Z,17.15
2017-04-20T22:00:26.864Z,17.78
2017-04-20T22:01:25.132Z,17.32
2017-04-20T22:02:23.498Z,16.42
2017-04-20T22:03:21.122Z,16.68
2017-04-20T22:04:19.492Z,17.20
2017-04-20T22:05:17.232Z,15.32
2017-04-20T22:06:14.768Z,17.65
2017-04-20T22:07:12.339Z,17.05
2017-04-20T22:08:09.899Z,16.67
2017-04-20T22:09:07.464Z,17.32
2017-04-20T22:10:05.123Z,18.90
2017-04-20T22:11:02.651Z,17.58
2017-04-20T22:12:00.231Z,17.70
2017-04-20T22:12:57.771Z,19.80
2017-04-20T22:13:55.268Z,19.63
2017-04-20T22:14:52.816Z,18.50
2017-04-20T22:15:50.430Z,18.70
2017-04-20T22:16:47.963Z,16.98
2017-04-20T22:17:46.261Z,17.33
2017-04-20T22:18:43.776Z,18.60
2017-04-20T22:19:41.308Z,17.15
2017-04-20T22:20:38.839Z,18.65
2017-04-20T22:21:36.503Z,17.75
2017-04-20T22:22:34.046Z,17.50
2017-04-20T22:23:32.293Z,17.82
2017-04-20T22:24:29.795Z,18.85
2017-04-20T22:25:27.349Z,18.58
2017-04-20T22:26:24.871Z,16.88
2017-04-20T22:27:22.482Z,19.05
2017-04-20T22:28:19.999Z,17.37
2017-04-20T22:29:17.499Z,19.58
2017-04-20T22:30:15.001Z,17.42
2017-04-20T22:31:12.575Z,18.17
2017-04-20T22:32:10.835Z,17.20
2017-04-20T22:33:08.437Z,18.90
2017-04-20T22:34:05.937Z,18.48
2017-04-20T22:35:03.555Z,19.62
2017-04-20T22:36:01.084Z,17.88
2017-04-20T22:36:58.746Z,19.35
2017-04-20T22:37:56.287Z,17.75
2017-04-20T22:38:53.913Z,17.55
2017-04-20T22:39:51.468Z,18.07
2017-04-20T22:40:48.964Z,18.20
2017-04-20T22:41:46.507Z,18.00
2017-04-20T22:42:44.079Z,19.32
2017-04-20T22:43:41.687Z,17.95
2017-04-20T22:44:39.247Z,18.15
2017-04-20T22:45:37.154Z,19.43
2017-04-20T22:46:34.715Z,17.63
2017-04-20T22:47:32.963Z,18.50
2017-04-20T22:48:31.738Z,19.22
2017-04-20T22:49:29.363Z,19.53
2017-04-20T22:50:26.934Z,19.25
2017-04-20T22:51:24.515Z,19.87
2017-04-20T22:52:22.055Z,17.82
2017-04-20T22:53:20.518Z,18.87
2017-04-20T22:54:18.852Z,20.80
2017-04-20T22:55:17.187Z,20.38
2017-04-20T22:56:15.441Z,18.97
2017-04-20T22:57:13.710Z,20.00
2017-04-20T22:58:11.992Z,18.60
2017-04-20T22:59:10.383Z,19.33
2017-04-20T23:00:08.719Z,18.82
2017-04-20T23:01:06.947Z,18.72
2017-04-20T23:02:05.539Z,20.03
2017-04-20T23:03:03.055Z,18.25
2017-04-20T23:04:00.639Z,20.83
2017-04-20T23:04:58.212Z,18.93
2017-04-20T23:05:56.460Z,18.28
2017-04-20T23:06:54.016Z,20.62
2017-04-20T23:07:51.527Z,19.88
2017-04-20T23:08:49.063Z,18.07
2017-04-20T23:09:46.710Z,20.32
2017-04-20T23:10:44.219Z,19.83
2017-04-20T23:11:41.753Z,17.62
2017-04-20T23:12:39.305Z,19.58
2017-04-20T23:13:37.568Z,18.82
2017-04-20T23:14:35.914Z,19.18
2017-04-20T23:15:33.625Z,19.23
2017-04-20T23:16:31.110Z,18.70
2017-04-20T23:17:29.386Z,19.73
2017-04-20T23:18:26.962Z,18.42
2017-04-20T23:19:24.480Z,19.10
2017-04-20T23:20:22.703Z,19.23
2017-04-20T23:21:20.268Z,17.75
2017-04-20T23:22:18.487Z,17.80
2017-04-20T23:23:15.987Z,18.88
2017-04-20T23:24:14.212Z,17.57
2017-04-20T23:25:12.423Z,18.98
2017-04-20T23:26:10.038Z,18.98
2017-04-20T23:27:08.309Z,18.18
2017-04-20T23:28:07.283Z,20.03
2017-04-20T23:29:05.550Z,19.08
2017-04-20T23:30:03.795Z,19.07
2017-04-20T23:31:01.331Z,20.02
2017-04-20T23:31:58.944Z,19.55
2017-04-20T23:32:57.168Z,18.58
2017-04-20T23:33:55.402Z,18.80
2017-04-20T23:34:52.897Z,17.45
2017-04-20T23:35:50.399Z,19.07
2017-04-20T23:36:47.923Z,17.92
2017-04-20T23:37:46.354Z,18.63
2017-04-20T23:38:43.847Z,20.85
2017-04-20T23:39:41.355Z,18.28
2017-04-20T23:40:38.939Z,20.12
2017-04-20T23:41:37.272Z,19.85
2017-04-20T23:42:34.783Z,20.30
2017-04-20T23:43:32.406Z,18.92
2017-04-20T23:44:29.876Z,18.88
2017-04-20T23:45:27.430Z,17.35
2017-04-20T23:46:25.688Z,18.10
2017-04-20T23:47:23.187Z,20.42
2017-04-20T23:48:21.418Z,18.68
2017-04-20T23:49:19.020Z,19.15
2017-04-20T23:50:17.222Z,18.90
2017-04-20T23:51:14.715Z,20.33
2017-04-20T23:52:12.345Z,19.92
2017-04-20T23:53:09.867Z,20.17
2017-04-20T23:54:07.360Z,19.65
2017-04-20T23:55:04.982Z,19.93
2017-04-20T23:56:02.458Z,20.73
2017-04-20T23:56:59.925Z,19.67
2017-04-20T23:57:57.623Z,18.87
2017-04-20T23:58:55.157Z,18.90
2017-04-20T23:59:53.405Z,20.07
